Latest Weather Observations for Tindal

IDD60801

Issued at 7:31 am CST Monday 30 March 2015 (issued every 30 minutes, with the page automatically refreshed every 10 minutes)

About weather observations | Map of weather stations | Latest weather observations for NT | Other Formats
Station Details ID: 014932 Name: TINDAL RAAF Lat: -14.52 Lon: 132.38 Height: 133.6 m
Data from the previous 72 hours. | See also: Recent months at Tindal
Date/Time
CST
Temp
°C
App
Temp
°C
Dew
Point
Rel
Hum
%
Delta-T
°C
Wind Press
QNH
hPa
Press
MSL
hPa
Rain
since 9 am
mm
Dir
 
Spd
km/h
Gust
km/h
Spd
kts
Gust
kts
30/07:30am 22.5 25.0 21.1 92 0.9 SSE 9 9 5 5 1013.9 - 0.0
30/07:00am 21.8 24.2 20.8 94 0.7 SSE 9 11 5 6 1013.5 - 0.0
30/06:30am 21.6 24.3 20.6 94 0.7 SE 7 9 4 5 1013.1 - 0.0
30/06:00am 21.4 23.5 20.2 93 0.8 SSE 9 11 5 6 1012.8 1011.8 0.0
30/05:30am 21.8 24.1 20.6 93 0.8 S 9 11 5 6 1012.6 - 0.0
30/05:00am 21.9 24.6 20.7 93 0.8 SSE 7 9 4 5 1012.3 - 0.0
30/04:30am 22.0 24.8 20.8 93 0.8 SSE 7 7 4 4 1012.0 - 0.0
30/04:00am 22.3 25.1 20.9 92 0.9 S 7 7 4 4 1012.0 - 0.0
30/03:30am 22.3 25.3 20.9 92 0.9 SE 6 7 3 4 1012.0 - 0.0
30/03:00am 22.7 25.9 21.3 92 0.9 SE 6 7 3 4 1012.2 1011.2 0.0
30/02:30am 22.8 27.2 21.4 92 0.9 CALM 0 0 0 0 1012.4 - 0.0
30/02:00am 23.0 26.8 21.6 92 0.9 SSE 4 7 2 4 1012.6 - 0.0
30/01:30am 23.1 26.2 21.5 91 1.1 S 7 7 4 4 1013.1 - 0.0
30/01:00am 23.3 26.7 21.7 91 1.1 SE 6 9 3 5 1013.4 - 0.0
30/12:30am 23.3 26.5 21.6 90 1.1 SE 7 7 4 4 1013.7 - 0.0
30/12:00am 24.0 27.6 22.1 89 1.3 SE 6 7 3 4 1013.9 1013.0 0.0
 
Date/Time
CST
Temp
°C
App
Temp
°C
Dew
Point
Rel
Hum
%
Delta-T
°C
Wind Press
QNH
hPa
Press
MSL
hPa
Rain
since 9 am
mm
Dir
 
Spd
km/h
Gust
km/h
Spd
kts
Gust
kts
29/11:30pm 24.4 27.9 22.1 87 1.5 ENE 7 9 4 5 1014.2 - 0.0
29/11:00pm 24.7 28.3 22.4 87 1.5 ESE 7 9 4 5 1014.5 - 0.0
29/10:30pm 25.2 28.6 22.7 86 1.7 SSE 9 9 5 5 1014.4 - 0.0
29/10:00pm 25.5 29.2 22.6 84 2.0 SSE 7 9 4 5 1014.3 - 0.0
29/09:30pm 26.3 30.3 22.8 81 2.4 SE 6 7 3 4 1014.1 - 0.0
29/09:00pm 26.5 30.2 22.6 79 2.6 SSE 7 9 4 5 1013.8 1012.9 0.0
29/08:30pm 26.9 30.3 22.7 78 2.9 SSE 9 9 5 5 1013.6 - 0.0
29/08:00pm 27.7 31.4 22.6 74 3.5 SE 7 7 4 4 1013.2 - 0.0
29/07:30pm 28.4 31.7 21.9 68 4.4 SE 7 9 4 5 1012.9 - 0.0
29/07:00pm 29.6 32.5 21.0 60 5.8 ESE 7 9 4 5 1012.6 - 0.0
29/06:30pm 31.2 33.8 20.5 53 7.1 E 7 11 4 6 1012.3 - 0.0
29/06:00pm 32.4 33.3 20.0 48 8.3 E 15 20 8 11 1012.1 1011.1 0.0
29/05:30pm 33.1 32.8 19.6 45 9.0 E 20 26 11 14 1011.9 - 0.0
29/05:00pm 32.7 32.8 19.2 44 8.9 E 17 26 9 14 1011.7 - 0.0
29/04:30pm 34.0 32.6 18.9 41 9.9 E 24 32 13 17 1011.5 - 0.0
29/04:00pm 34.2 33.8 19.4 41 9.8 ESE 20 26 11 14 1011.4 - 0.0
29/03:30pm 34.5 34.3 19.3 40 10.1 ESE 19 24 10 13 1011.4 - 0.0
29/03:00pm 34.1 33.9 19.4 42 9.8 E 19 24 10 13 1011.5 1010.5 0.0
29/02:30pm 33.7 33.9 19.4 43 9.5 ESE 17 26 9 14 1011.7 - 0.0
29/02:00pm 34.5 34.3 19.3 40 10.1 E 19 28 10 15 1012.0 - 0.0
29/01:30pm 34.5 34.3 18.5 38 10.5 E 17 33 9 18 1012.4 - 0.0
29/01:00pm 34.0 33.6 19.3 42 9.7 E 20 30 11 16 1012.9 - 0.0
29/12:30pm 33.6 34.7 20.4 46 8.9 E 15 20 8 11 1013.3 - 0.0
29/12:00pm 33.0 34.5 20.5 47 8.4 E 13 22 7 12 1013.8 1012.9 0.0
29/11:30am 32.7 33.5 20.6 49 8.1 ESE 17 22 9 12 1014.3 - 0.0
29/11:00am 32.0 34.0 21.5 53 7.1 E 13 20 7 11 1014.6 - 0.0
29/10:30am 30.6 33.9 21.4 58 6.2 N 6 7 3 4 1014.9 - 0.0
29/10:00am 30.1 33.1 20.9 57 6.2 SE 6 11 3 6 1014.9 - 0.0
29/09:30am 29.3 32.9 21.3 62 5.4 ENE 4 7 2 4 1014.9 - 0.0
29/09:00am 28.1 32.5 22.1 70 4.1 S 2 6 1 3 1014.7 1013.8 0.0
29/08:30am 26.6 30.3 22.2 77 3.0 S 6 9 3 5 1014.5 - 0.0
29/08:00am 25.2 29.1 22.5 85 1.8 SE 6 7 3 4 1014.1 - 0.0
29/07:30am 23.6 27.3 22.2 92 0.9 SSE 6 7 3 4 1013.6 - 0.0
29/07:00am 22.9 27.1 21.7 93 0.8 ESE 2 6 1 3 1013.3 - 0.0
29/06:30am 22.7 26.0 21.5 93 0.8 ESE 6 7 3 4 1013.1 - 0.0
29/06:00am 22.7 25.8 21.5 93 0.8 SSE 7 9 4 5 1012.7 1011.7 0.0
29/05:30am 22.9 27.0 21.5 92 0.9 WNW 2 6 1 3 1012.4 - 0.0
29/05:00am 22.9 26.2 21.5 92 0.9 WNW 6 9 3 5 1012.3 - 0.0
29/04:30am 23.2 26.6 21.6 91 1.1 SSE 6 7 3 4 1012.1 - 0.0
29/04:00am 23.5 28.1 21.8 90 1.1 CALM 0 2 0 1 1012.0 - 0.0
29/03:30am 23.5 26.8 21.9 91 1.1 SSE 7 7 4 4 1012.1 - 0.0
29/03:00am 23.4 26.7 21.5 89 1.3 SSE 6 6 3 3 1012.2 1011.2 0.0
29/02:30am 23.7 27.1 21.6 88 1.4 SSE 6 7 3 4 1012.2 - 0.0
29/02:00am 24.1 27.7 22.0 88 1.4 SSE 6 7 3 4 1012.3 - 0.0
29/01:30am 24.5 27.9 21.6 84 1.9 SSE 6 6 3 3 1012.8 - 0.0
29/01:00am 24.5 28.0 21.8 85 1.8 SSE 6 7 3 4 1013.3 - 0.0
29/12:30am 24.7 28.0 21.8 84 1.9 SSE 7 9 4 5 1013.7 - 0.0
29/12:00am 24.9 28.3 22.0 84 1.9 SE 7 7 4 4 1013.8 1012.9 0.0
 
Date/Time
CST
Temp
°C
App
Temp
°C
Dew
Point
Rel
Hum
%
Delta-T
°C
Wind Press
QNH
hPa
Press
MSL
hPa
Rain
since 9 am
mm
Dir
 
Spd
km/h
Gust
km/h
Spd
kts
Gust
kts
28/11:30pm 25.5 28.7 21.6 79 2.6 S 7 9 4 5 1014.0 - 0.0
28/11:00pm 26.0 29.6 20.6 72 3.6 E 2 6 1 3 1013.9 - 0.0
28/10:30pm 26.1 28.6 21.1 74 3.3 ESE 9 11 5 6 1014.0 - 0.0
28/10:00pm 26.0 28.2 21.2 75 3.2 ESE 11 11 6 6 1013.7 - 0.0
28/09:30pm 26.2 28.8 21.2 74 3.3 ESE 9 11 5 6 1013.7 - 0.0
28/09:00pm 26.3 29.4 22.2 78 2.8 SE 9 11 5 6 1013.6 1012.7 0.0
28/08:30pm 26.8 29.3 21.1 71 3.8 ESE 9 11 5 6 1013.2 - 0.0
28/08:00pm 27.2 29.8 21.2 69 4.0 SE 9 11 5 6 1012.8 - 0.0
28/07:30pm 28.1 30.6 21.1 65 4.7 SE 9 11 5 6 1012.2 - 0.0
28/07:00pm 29.8 31.4 19.2 53 6.9 ESE 9 11 5 6 1011.8 - 0.0
28/06:30pm 31.6 32.7 17.9 44 8.8 ESE 9 11 5 6 1011.4 - 0.0
28/06:00pm 33.1 32.8 16.5 37 10.6 ESE 13 17 7 9 1011.2 1010.2 0.0
28/05:30pm 34.1 33.6 16.0 34 11.5 E 13 17 7 9 1011.0 - 0.0
28/05:00pm 34.6 34.3 16.4 33 11.6 E 13 20 7 11 1010.8 - 0.0
28/04:30pm 35.0 33.5 15.3 30 12.4 ENE 17 20 9 11 1010.8 - 0.0
28/04:00pm 35.1 33.5 14.9 29 12.6 E 17 24 9 13 1010.8 - 0.0
28/03:30pm 35.3 34.9 16.1 32 12.2 E 13 22 7 12 1010.8 - 0.0
28/03:00pm 34.7 33.7 15.6 32 12.0 E 15 24 8 13 1011.2 1010.2 0.0
28/02:30pm 35.1 33.3 15.4 30 12.4 ENE 19 24 10 13 1011.5 - 0.0
28/02:00pm 34.8 34.0 15.2 31 12.3 E 13 20 7 11 1012.0 - 0.0
28/01:30pm 34.0 33.2 14.0 30 12.3 E 11 19 6 10 1012.4 - 0.0
28/01:00pm 34.0 32.8 15.0 32 11.8 ESE 15 24 8 13 1012.8 - 0.0
28/12:30pm 33.5 33.3 16.8 36 10.7 E 13 19 7 10 1013.4 - 0.0
28/12:00pm 33.0 33.7 18.0 41 9.7 NE 11 15 6 8 1013.7 1012.8 0.0
28/11:30am 32.2 34.4 19.5 47 8.4 NNE 7 15 4 8 1014.0 - 0.0
28/11:00am 31.6 33.2 19.2 47 8.1 ENE 9 15 5 8 1014.2 - 0.0
28/10:30am 30.9 32.4 18.9 48 7.8 ENE 9 17 5 9 1014.3 - 0.0
28/10:00am 29.3 32.2 21.0 61 5.6 E 7 13 4 7 1014.3 - 0.0
28/09:30am 27.8 30.9 21.1 67 4.5 ESE 6 9 3 5 1014.2 - 0.0
28/09:00am 26.4 29.9 21.8 76 3.1 ESE 6 9 3 5 1014.1 1013.2 0.0
28/08:30am 24.8 29.9 22.7 88 1.4 CALM 0 0 0 0 1014.1 - 0.0
28/08:00am 24.0 28.1 22.3 90 1.1 NNE 4 6 2 3 1013.9 - 0.0
28/07:30am 22.6 27.2 21.8 95 0.5 CALM 0 0 0 0 1013.7 - 0.0
28/07:00am 21.8 26.0 21.0 95 0.5 CALM 0 0 0 0 1013.2 - 0.0
28/06:30am 21.9 26.2 21.2 96 0.5 CALM 0 0 0 0 1012.9 - 0.0
28/06:00am 21.7 25.5 20.9 95 0.5 ESE 2 6 1 3 1012.6 1011.6 0.0
28/05:30am 21.9 25.8 21.1 95 0.5 SSE 2 6 1 3 1012.5 - 0.0
28/05:00am 21.9 24.4 21.1 95 0.5 SSE 9 9 5 5 1012.7 - 0.0
28/04:49am 22.0 26.3 21.2 95 0.5 CALM 0 0 0 0 1012.6 - 0.0
28/04:47am 22.0 26.3 21.2 95 0.5 CALM 0 0 0 0 1012.5 - 0.0
28/04:38am 22.0 26.2 21.0 94 0.7 CALM 0 0 0 0 1012.6 - 0.0
28/04:30am 22.2 26.5 21.2 94 0.7 CALM 0 0 0 0 1012.5 - 0.0
28/04:23am 22.3 26.8 21.5 95 0.5 CALM 0 0 0 0 1012.5 - 0.0
28/04:22am 22.3 26.8 21.5 95 0.5 CALM 0 0 0 0 1012.5 - 0.0
28/04:17am 22.6 27.2 21.8 95 0.5 CALM 0 - 0 - 1012.4 - 0.0
28/04:07am 22.6 27.2 21.8 95 0.5 CALM 0 0 0 0 1012.4 - 0.0
28/04:00am 22.7 27.3 21.7 94 0.7 CALM 0 0 0 0 1012.4 - 0.0
28/03:56am 22.8 27.4 21.8 94 0.7 CALM 0 0 0 0 1012.4 - 0.0
28/03:30am 22.9 27.7 22.1 95 0.5 CALM 0 0 0 0 1012.5 - 0.0
28/03:00am 22.9 27.6 21.9 94 0.7 CALM 0 0 0 0 1012.5 1011.5 0.0
28/02:30am 23.0 27.6 21.8 93 0.8 CALM 0 0 0 0 1012.8 - 0.0
28/02:00am 23.5 28.5 22.5 94 0.7 CALM 0 0 0 0 1013.1 - 0.0
28/01:30am 23.5 28.4 22.3 93 0.8 CALM 0 0 0 0 1013.3 - 0.0
28/01:00am 23.8 28.7 22.4 92 0.9 CALM 0 0 0 0 1013.5 - 0.0
28/12:30am 24.3 29.6 23.1 93 0.8 CALM 0 0 0 0 1013.8 - 0.0
28/12:00am 24.8 30.0 22.9 89 1.3 CALM 0 0 0 0 1014.0 1013.1 0.0
 
Date/Time
CST
Temp
°C
App
Temp
°C
Dew
Point
Rel
Hum
%
Delta-T
°C
Wind Press
QNH
hPa
Press
MSL
hPa
Rain
since 9 am
mm
Dir
 
Spd
km/h
Gust
km/h
Spd
kts
Gust
kts
27/11:30pm 24.9 30.3 23.3 91 1.1 CALM 0 0 0 0 1014.2 - 0.0
27/11:00pm 25.1 30.5 23.2 89 1.3 CALM 0 0 0 0 1014.4 - 0.0
27/10:30pm 25.7 30.9 22.8 84 2.0 CALM 0 0 0 0 1014.8 - 0.0
27/10:00pm 25.8 31.0 23.5 87 1.6 S 2 7 1 4 1014.8 - 0.0
27/09:30pm 26.4 31.9 24.1 87 1.6 E 2 9 1 5 1014.9 - 0.0
27/09:00pm 26.7 32.0 23.0 80 2.5 CALM 0 0 0 0 1014.8 1013.9 0.0
27/08:30pm 27.1 31.0 22.9 78 2.9 ENE 7 9 4 5 1014.5 - 0.0
27/08:00pm 27.4 31.3 23.0 77 3.0 ESE 7 11 4 6 1014.1 - 0.0
27/07:30pm 27.2 30.9 23.2 79 2.7 ESE 9 11 5 6 1013.6 - 0.0
27/07:00pm 27.7 32.0 23.7 79 2.8 SSE 7 7 4 4 1013.2 - 0.0
27/06:30pm 28.1 32.4 23.7 77 3.0 SSE 7 9 4 5 1013.0 - 0.0
27/06:00pm 28.8 32.9 23.0 71 4.0 SSE 6 9 3 5 1013.0 1012.1 0.0
27/05:30pm 29.5 33.2 22.5 66 4.8 SSE 7 11 4 6 1012.7 - 0.0
27/05:00pm 29.8 32.3 21.7 61 5.5 SE 11 17 6 9 1012.4 - 0.0
27/04:30pm 30.2 32.5 22.1 62 5.5 SSE 13 17 7 9 1012.4 - 0.0
27/04:00pm 30.5 31.8 21.6 59 6.0 SSE 17 24 9 13 1012.1 - 0.0
27/03:30pm 30.7 32.0 22.3 61 5.7 SSE 19 24 10 13 1012.1 - 0.0
27/03:00pm 30.8 31.9 21.9 59 6.0 SSE 19 24 10 13 1012.7 1011.7 0.0
27/02:30pm 31.2 32.4 21.4 56 6.6 S 17 22 9 12 1013.1 - 0.0
27/02:00pm 31.1 34.3 23.0 62 5.6 SSE 11 19 6 10 1013.6 - 0.0
27/01:30pm 31.0 33.6 22.0 58 6.1 E 11 17 6 9 1014.1 - 0.0
27/01:00pm 31.0 33.2 21.2 56 6.6 E 11 17 6 9 1014.3 - 0.0
27/12:30pm 31.0 34.0 22.6 61 5.8 ESE 11 19 6 10 1014.6 - 0.0
27/12:00pm 30.3 33.2 22.5 63 5.3 E 11 19 6 10 1015.0 1014.1 0.0
27/11:30am 30.0 34.1 23.2 67 4.7 S 7 11 4 6 1015.6 - 0.0
27/11:00am 29.1 31.9 22.3 66 4.6 ESE 11 17 6 9 1016.0 - 0.0
27/10:30am 27.8 31.1 23.2 76 3.2 ESE 11 17 6 9 1016.3 - 0.0
27/10:00am 27.1 30.7 23.1 79 2.7 SSE 9 13 5 7 1016.6 - 0.0
27/09:30am 25.8 29.3 23.5 87 1.6 SSE 11 15 6 8 1016.9 - 0.0
27/09:00am 24.9 28.1 23.1 90 1.2 SE 11 13 6 7 1017.0 1016.0 31.8
27/08:30am 24.5 28.2 23.3 93 0.8 SE 9 13 5 7 1016.8 - 31.8
27/08:00am 24.2 27.9 23.2 94 0.7 S 9 11 5 6 1016.4 - 31.8

Other Formats:

Comma delimited format used in spreadsheet applications
http://www.bom.gov.au/fwo/IDD60801/IDD60801.94131.axf

JavaScript Object Notation format (JSON) in row-major order
http://www.bom.gov.au/fwo/IDD60801/IDD60801.94131.json